Terminal Aerodrome Forecast
Issued by NWS

Home | Current Version | Previous Version | Text Only | Print | Product List | Glossary On
Versions: 1 2 3 4 5 6 7 8 9 10 11 12 13 14 15
000
FTUS42 TJSJ 190539
TAFJSJ
TAF
TJSJ 190539Z 1906/2006 10007KT P6SM VCSH FEW035 SCT045 SCT100
     FM191300 08012KT P6SM VCSH SCT030 SCT045 PROB30 1916/1920 4SM
      SHRA SCT030 BKN050
     FM192000 10012KT P6SM FEW040 SCT100
     FM200100 11003KT P6SM FEW045=

USA.gov is the U.S. government's official web portal to all federal, state and local government web resources and services.